Time;durP1;ratioP1;P1;durP2;ratioP2;P2;SDS_P1;SDS_P2;PMS_P1;PMS_P2;Temp;Humidity;BMP_temperature;BMP_pressure;BME280_temperature;BME280_humidity;BME280_pressure;Samples;Min_cycle;Max_cycle;Signal;HPM_P1;HPM_P2
2024/03/23 00:01:43;;;;;;;;;;;;;;;;;;5020885;28;19908;-89
2024/03/23 00:04:08;;;;;;;;;;;;;;;;;;5014040;28;19905;-86
2024/03/23 00:06:34;;;;;;;;;;;;;;;;;;5046384;28;19960;-86
2024/03/23 00:08:59;;;;;;;;;;;;;;;;;;4992429;28;19961;-85
2024/03/23 00:11:25;;;;;;;;;;;;;;;;;;5030202;28;20263;-88
2024/03/23 00:13:50;;;;;;;;;;;;;;;;;;5010243;28;19913;-88
2024/03/23 00:16:18;;;;;;;;;;;;;;;;;;5005306;28;19921;-87
2024/03/23 00:18:45;;;;;;;;;;;;;;;;;;5024776;28;19929;-87
2024/03/23 00:21:13;;;;;;;;;;;;;;;;;;5019331;28;19913;-89
2024/03/23 00:23:39;;;;;;;;;;;;;;;;;;5010589;28;19914;-90
2024/03/23 00:26:06;;;;;;;;;;;;;;;;;;5001199;28;19917;-86
2024/03/23 00:28:35;;;;;;;;;;;;;;;;;;5006631;28;20316;-85
2024/03/23 00:31:00;;;;;;;;;;;;;;;;;;5004203;28;19995;-87
2024/03/23 00:33:25;;;;;;;;;;;;;;;;;;4991911;28;20475;-87
2024/03/23 00:35:51;;;;;;;;;;;;;;;;;;5019997;28;19910;-90
2024/03/23 00:38:16;;;;;;;;;;;;;;;;;;5020102;28;19982;-87
2024/03/23 00:40:44;;;;;;;;;;;;;;;;;;5020817;28;19917;-87
2024/03/23 00:43:09;;;;;;;;;;;;;;;;;;4986966;28;19923;-89
2024/03/23 00:45:35;;;;;;;;;;;;;;;;;;5020309;28;19988;-87
2024/03/23 00:48:01;;;;;;;;;;;;;;;;;;5004111;28;19976;-89
2024/03/23 00:50:29;;;;;;;;;;;;;;;;;;4990567;28;19944;-88
2024/03/23 00:52:54;;;;;;;;;;;;;;;;;;5020128;28;19921;-85
2024/03/23 00:55:21;;;;;;;;;;;;;;;;;;5014793;28;19969;-87
2024/03/23 00:57:51;;;;;;;;;;;;;;;;;;4999437;28;19971;-86
2024/03/23 01:00:16;;;;;;;;;;;;;;;;;;5017943;28;19917;-86
2024/03/23 01:02:50;;;;;;;;;;;;;;;;;;5014021;28;20358;-87
2024/03/23 01:05:16;;;;;;;;;;;;;;;;;;5001137;28;19932;-86
2024/03/23 01:07:41;;;;;;;;;;;;;;;;;;4999871;28;19913;-88
2024/03/23 01:10:07;;;;;;;;;;;;;;;;;;4999887;28;19992;-86
2024/03/23 01:12:32;;;;;;;;;;;;;;;;;;4984420;28;19955;-87
2024/03/23 01:15:00;;;;;;;;;;;;;;;;;;4996515;28;19913;-89
2024/03/23 01:17:28;;;;;;;;;;;;;;;;;;4997117;28;20370;-89
2024/03/23 01:19:53;;;;;;;;;;;;;;;;;;5001173;28;19913;-85
2024/03/23 01:22:21;;;;;;;;;;;;;;;;;;4994547;28;20028;-88
2024/03/23 01:24:47;;;;;;;;;;;;;;;;;;4995102;28;19991;-87
2024/03/23 01:27:12;;;;;;;;;;;;;;;;;;4998112;28;19960;-85
2024/03/23 01:29:39;;;;;;;;;;;;;;;;;;5013679;28;19917;-85
2024/03/23 01:32:06;;;;;;;;;;;;;;;;;;4996285;28;19928;-86
2024/03/23 01:34:32;;;;;;;;;;;;;;;;;;4982565;28;20227;-85
2024/03/23 01:36:57;;;;;;;;;;;;;;;;;;5017258;28;19932;-89
2024/03/23 01:39:27;;;;;;;;;;;;;;;;;;4982664;28;19914;-88
2024/03/23 01:41:55;;;;;;;;;;;;;;;;;;4981283;28;19923;-88
2024/03/23 01:44:23;;;;;;;;;;;;;;;;;;4976702;28;19913;-86
2024/03/23 01:46:52;;;;;;;;;;;;;;;;;;5015427;28;20100;-89
2024/03/23 01:49:21;;;;;;;;;;;;;;;;;;4995509;28;19917;-88
2024/03/23 01:51:47;;;;;;;;;;;;;;;;;;5031780;28;19939;-88
2024/03/23 01:54:13;;;;;;;;;;;;;;;;;;5039757;28;19913;-85
2024/03/23 01:56:38;;;;;;;;;;;;;;;;;;5020434;28;20358;-88
2024/03/23 01:59:06;;;;;;;;;;;;;;;;;;4996612;28;19929;-87
2024/03/23 02:01:33;;;;;;;;;;;;;;;;;;5003113;28;19913;-88
2024/03/23 02:03:58;;;;;;;;;;;;;;;;;;5022451;28;20814;-87
2024/03/23 02:06:23;;;;;;;;;;;;;;;;;;5021918;28;20015;-84
2024/03/23 02:08:50;;;;;;;;;;;;;;;;;;5016412;28;19931;-85
2024/03/23 02:11:19;;;;;;;;;;;;;;;;;;5015034;28;20010;-84
2024/03/23 02:13:47;;;;;;;;;;;;;;;;;;5017721;28;19924;-87
2024/03/23 02:16:16;;;;;;;;;;;;;;;;;;5016192;28;19932;-85
2024/03/23 02:18:45;;;;;;;;;;;;;;;;;;5020905;28;19991;-88
2024/03/23 02:21:11;;;;;;;;;;;;;;;;;;5036315;28;19999;-87
2024/03/23 02:23:36;;;;;;;;;;;;;;;;;;5036969;28;19990;-89
2024/03/23 02:26:01;;;;;;;;;;;;;;;;;;5017897;28;20015;-84
2024/03/23 02:28:26;;;;;;;;;;;;;;;;;;5002305;28;20291;-88
2024/03/23 02:30:53;;;;;;;;;;;;;;;;;;5036664;28;19916;-86
2024/03/23 02:33:21;;;;;;;;;;;;;;;;;;5034669;28;19920;-90
2024/03/23 02:35:50;;;;;;;;;;;;;;;;;;5033302;28;19945;-87
2024/03/23 02:38:15;;;;;;;;;;;;;;;;;;5018162;28;19924;-86
2024/03/23 02:40:40;;;;;;;;;;;;;;;;;;5016997;28;20012;-87
2024/03/23 02:43:08;;;;;;;;;;;;;;;;;;5034251;28;20003;-88
2024/03/23 02:45:37;;;;;;;;;;;;;;;;;;5003852;28;19952;-87
2024/03/23 02:48:05;;;;;;;;;;;;;;;;;;5020111;28;20009;-89
2024/03/23 02:50:31;;;;;;;;;;;;;;;;;;5017858;28;19957;-89
2024/03/23 02:52:57;;;;;;;;;;;;;;;;;;4996182;28;19925;-87
2024/03/23 02:55:22;;;;;;;;;;;;;;;;;;5019895;28;19917;-84
2024/03/23 02:57:50;;;;;;;;;;;;;;;;;;5014814;28;19984;-85
2024/03/23 03:00:20;;;;;;;;;;;;;;;;;;5010776;28;20023;-88
2024/03/23 03:02:45;;;;;;;;;;;;;;;;;;5020819;28;19949;-88
2024/03/23 03:05:11;;;;;;;;;;;;;;;;;;5020687;28;20319;-87
2024/03/23 03:07:38;;;;;;;;;;;;;;;;;;5039634;28;20004;-89
2024/03/23 03:10:06;;;;;;;;;;;;;;;;;;5045297;28;19913;-87
2024/03/23 03:12:31;;;;;;;;;;;;;;;;;;5008559;28;19984;-88
2024/03/23 03:14:56;;;;;;;;;;;;;;;;;;5024054;28;19917;-89
2024/03/23 03:17:24;;;;;;;;;;;;;;;;;;5006951;28;19961;-88
2024/03/23 03:19:55;;;;;;;;;;;;;;;;;;5013867;28;20338;-87
2024/03/23 03:22:20;;;;;;;;;;;;;;;;;;5030167;28;20371;-84
2024/03/23 03:24:45;;;;;;;;;;;;;;;;;;5055675;28;19924;-84
2024/03/23 03:27:11;;;;;;;;;;;;;;;;;;5055792;28;19927;-83
2024/03/23 03:29:36;;;;;;;;;;;;;;;;;;5044160;28;20307;-83
2024/03/23 03:32:01;;;;;;;;;;;;;;;;;;5024054;28;19916;-81
2024/03/23 03:34:26;;;;;;;;;;;;;;;;;;5038366;28;19906;-85
2024/03/23 03:36:53;;;;;;;;;;;;;;;;;;5037133;28;20066;-84
2024/03/23 03:39:18;;;;;;;;;;;;;;;;;;5046873;28;20004;-84
2024/03/23 03:41:44;;;;;;;;;;;;;;;;;;5020553;28;19969;-84
2024/03/23 03:44:09;;;;;;;;;;;;;;;;;;5057145;28;19944;-84
2024/03/23 03:46:35;;;;;;;;;;;;;;;;;;5061534;28;19924;-84
2024/03/23 03:49:05;;;;;;;;;;;;;;;;;;5049309;28;19979;-87
2024/03/23 03:51:33;;;;;;;;;;;;;;;;;;5018059;28;19948;-85
2024/03/23 03:53:58;;;;;;;;;;;;;;;;;;5027536;28;19925;-86
2024/03/23 03:56:24;;;;;;;;;;;;;;;;;;5059410;28;19923;-84
2024/03/23 03:58:49;;;;;;;;;;;;;;;;;;5024494;28;19901;-85
2024/03/23 04:01:14;;;;;;;;;;;;;;;;;;5057344;28;19980;-85
2024/03/23 04:03:44;;;;;;;;;;;;;;;;;;5016257;28;19969;-84
2024/03/23 04:06:10;;;;;;;;;;;;;;;;;;5033575;28;19936;-87
2024/03/23 04:08:35;;;;;;;;;;;;;;;;;;5055831;28;19972;-84
2024/03/23 04:13:30;;;;;;;;;;;;;;;;;;5048201;28;19932;-87
2024/03/23 04:15:59;;;;;;;;;;;;;;;;;;5048213;28;19914;-86
2024/03/23 04:18:24;;;;;;;;;;;;;;;;;;5027452;28;19987;-86
2024/03/23 04:20:49;;;;;;;;;;;;;;;;;;5005103;28;19917;-86
2024/03/23 04:23:15;;;;;;;;;;;;;;;;;;5027879;28;20007;-90
2024/03/23 04:25:40;;;;;;;;;;;;;;;;;;5009030;28;20327;-89
2024/03/23 04:28:05;;;;;;;;;;;;;;;;;;5007921;28;19945;-88
2024/03/23 04:30:34;;;;;;;;;;;;;;;;;;5011300;28;19917;-87
2024/03/23 04:33:04;;;;;;;;;;;;;;;;;;5038378;28;19925;-86
2024/03/23 04:35:30;;;;;;;;;;;;;;;;;;5021722;28;19986;-86
2024/03/23 04:38:01;;;;;;;;;;;;;;;;;;5008812;28;20358;-86
2024/03/23 04:40:27;;;;;;;;;;;;;;;;;;5040528;28;19924;-86
2024/03/23 04:42:52;;;;;;;;;;;;;;;;;;5039465;28;19917;-87
2024/03/23 04:45:17;;;;;;;;;;;;;;;;;;5023758;28;20381;-87
2024/03/23 04:47:45;;;;;;;;;;;;;;;;;;5026022;28;19925;-87
2024/03/23 04:50:10;;;;;;;;;;;;;;;;;;5008639;28;20033;-84
2024/03/23 04:52:36;;;;;;;;;;;;;;;;;;4983168;28;19932;-88
2024/03/23 04:55:05;;;;;;;;;;;;;;;;;;4983455;28;20377;-86
2024/03/23 04:57:33;;;;;;;;;;;;;;;;;;4983571;28;20028;-88
2024/03/23 04:59:58;;;;;;;;;;;;;;;;;;5000893;28;20402;-87
2024/03/23 05:02:27;;;;;;;;;;;;;;;;;;5008200;28;19921;-84
2024/03/23 05:04:52;;;;;;;;;;;;;;;;;;5019466;28;19913;-84
2024/03/23 05:07:20;;;;;;;;;;;;;;;;;;4988963;28;19932;-89
2024/03/23 05:09:49;;;;;;;;;;;;;;;;;;5019169;28;20480;-88
2024/03/23 05:12:14;;;;;;;;;;;;;;;;;;5004004;28;19940;-90
2024/03/23 05:14:42;;;;;;;;;;;;;;;;;;4980037;28;20535;-86
2024/03/23 05:17:08;;;;;;;;;;;;;;;;;;5017127;28;19956;-87
2024/03/23 05:19:33;;;;;;;;;;;;;;;;;;5030129;28;19948;-89
2024/03/23 05:21:59;;;;;;;;;;;;;;;;;;5002131;28;19921;-90
2024/03/23 05:24:24;;;;;;;;;;;;;;;;;;4978894;28;19999;-88
2024/03/23 05:26:52;;;;;;;;;;;;;;;;;;5004330;28;19944;-88
2024/03/23 05:29:18;;;;;;;;;;;;;;;;;;5000262;28;19941;-91
2024/03/23 05:31:46;;;;;;;;;;;;;;;;;;4996206;28;19924;-87
2024/03/23 05:34:14;;;;;;;;;;;;;;;;;;4999685;28;19912;-89
2024/03/23 05:36:42;;;;;;;;;;;;;;;;;;5002777;28;19920;-87
2024/03/23 05:39:07;;;;;;;;;;;;;;;;;;5000588;28;19918;-89
2024/03/23 05:41:35;;;;;;;;;;;;;;;;;;5003251;28;19940;-87
2024/03/23 05:44:01;;;;;;;;;;;;;;;;;;4997946;28;20054;-87
2024/03/23 05:46:31;;;;;;;;;;;;;;;;;;5031637;28;19952;-88
2024/03/23 05:48:57;;;;;;;;;;;;;;;;;;5004341;28;19944;-90
2024/03/23 05:51:23;;;;;;;;;;;;;;;;;;5022080;28;19921;-89
2024/03/23 05:53:48;;;;;;;;;;;;;;;;;;5004418;28;19925;-91
2024/03/23 05:56:14;;;;;;;;;;;;;;;;;;5007514;28;19941;-88
2024/03/23 05:58:42;;;;;;;;;;;;;;;;;;5021782;28;20333;-87
2024/03/23 06:01:18;;;;;;;;;;;;;;;;;;5027581;28;19917;-88
2024/03/23 06:03:48;;;;;;;;;;;;;;;;;;5041677;28;19917;-88
2024/03/23 06:06:14;;;;;;;;;;;;;;;;;;5025096;28;19948;-87
2024/03/23 06:08:39;;;;;;;;;;;;;;;;;;5026267;28;20263;-87
2024/03/23 06:11:06;;;;;;;;;;;;;;;;;;5024515;28;19925;-91
2024/03/23 06:13:31;;;;;;;;;;;;;;;;;;5005950;28;19940;-84
2024/03/23 06:15:58;;;;;;;;;;;;;;;;;;5008858;28;19917;-87
2024/03/23 06:18:23;;;;;;;;;;;;;;;;;;5027543;28;19987;-88
2024/03/23 06:20:50;;;;;;;;;;;;;;;;;;5029258;28;19913;-90
2024/03/23 06:23:20;;;;;;;;;;;;;;;;;;5008521;28;19951;-89
2024/03/23 06:25:45;;;;;;;;;;;;;;;;;;5007876;28;19917;-87
2024/03/23 06:28:10;;;;;;;;;;;;;;;;;;5024146;28;19983;-86
2024/03/23 06:30:35;;;;;;;;;;;;;;;;;;5026355;28;20346;-87
2024/03/23 06:33:01;;;;;;;;;;;;;;;;;;5026866;28;20557;-90
2024/03/23 06:35:26;;;;;;;;;;;;;;;;;;5022156;28;19917;-92
2024/03/23 06:37:52;;;;;;;;;;;;;;;;;;5028389;28;19932;-88
2024/03/23 06:40:17;;;;;;;;;;;;;;;;;;5010254;28;19944;-87
2024/03/23 06:42:51;;;;;;;;;;;;;;;;;;5021424;28;19976;-90
2024/03/23 06:45:22;;;;;;;;;;;;;;;;;;5029182;28;19932;-91
2024/03/23 06:47:48;;;;;;;;;;;;;;;;;;5027460;28;19948;-88
2024/03/23 06:50:14;;;;;;;;;;;;;;;;;;5044594;28;19936;-88
2024/03/23 06:52:39;;;;;;;;;;;;;;;;;;5011220;28;19917;-88
2024/03/23 06:55:05;;;;;;;;;;;;;;;;;;5011116;28;19936;-87
2024/03/23 06:57:31;;;;;;;;;;;;;;;;;;5010213;28;19922;-88
2024/03/23 06:59:59;;;;;;;;;;;;;;;;;;5026474;28;20064;-91
2024/03/23 07:02:34;;;;;;;;;;;;;;;;;;5024905;28;19945;-91
2024/03/23 07:05:00;;;;;;;;;;;;;;;;;;5043709;28;19933;-88
2024/03/23 07:07:30;;;;;;;;;;;;;;;;;;5020889;28;20303;-89
2024/03/23 07:09:56;;;;;;;;;;;;;;;;;;5013709;28;19913;-90
2024/03/23 07:12:24;;;;;;;;;;;;;;;;;;5048039;28;19981;-87
2024/03/23 07:14:52;;;;;;;;;;;;;;;;;;5047862;28;19947;-87
2024/03/23 07:17:18;;;;;;;;;;;;;;;;;;5024687;28;19992;-87
2024/03/23 07:19:43;;;;;;;;;;;;;;;;;;5010753;28;19932;-88
2024/03/23 07:22:08;;;;;;;;;;;;;;;;;;5029855;28;19930;-86
2024/03/23 07:24:36;;;;;;;;;;;;;;;;;;5040249;28;19967;-87
2024/03/23 07:27:03;;;;;;;;;;;;;;;;;;5030352;28;19928;-86
2024/03/23 07:29:31;;;;;;;;;;;;;;;;;;5032813;28;19958;-88
2024/03/23 07:32:00;;;;;;;;;;;;;;;;;;5012203;28;19975;-88
2024/03/23 07:34:30;;;;;;;;;;;;;;;;;;5026807;28;19967;-90
2024/03/23 07:36:57;;;;;;;;;;;;;;;;;;5043881;28;19922;-92
2024/03/23 07:39:27;;;;;;;;;;;;;;;;;;5007787;28;19909;-90
2024/03/23 07:41:55;;;;;;;;;;;;;;;;;;5028355;28;19900;-88
2024/03/23 07:44:21;;;;;;;;;;;;;;;;;;5031900;28;19917;-86
2024/03/23 07:46:46;;;;;;;;;;;;;;;;;;5030396;28;20615;-86
2024/03/23 07:49:11;;;;;;;;;;;;;;;;;;5034290;28;19909;-87
2024/03/23 07:51:39;;;;;;;;;;;;;;;;;;5028897;28;19921;-87
2024/03/23 07:54:04;;;;;;;;;;;;;;;;;;5032639;28;19953;-86
2024/03/23 07:56:31;;;;;;;;;;;;;;;;;;5018558;28;19955;-87
2024/03/23 07:58:59;;;;;;;;;;;;;;;;;;5029891;28;19917;-89
2024/03/23 08:01:25;;;;;;;;;;;;;;;;;;5027005;28;19961;-90
2024/03/23 08:03:54;;;;;;;;;;;;;;;;;;5007447;28;19924;-87
2024/03/23 08:06:20;;;;;;;;;;;;;;;;;;5043429;28;19924;-87
2024/03/23 08:08:47;;;;;;;;;;;;;;;;;;5032299;28;19909;-88
2024/03/23 08:11:12;;;;;;;;;;;;;;;;;;5015152;28;19913;-86
2024/03/23 08:13:37;;;;;;;;;;;;;;;;;;5028552;28;19927;-88
2024/03/23 08:16:04;;;;;;;;;;;;;;;;;;5027223;28;19949;-88
2024/03/23 08:18:31;;;;;;;;;;;;;;;;;;5020360;28;20004;-89
2024/03/23 08:20:57;;;;;;;;;;;;;;;;;;5027794;28;19976;-89
2024/03/23 08:23:22;;;;;;;;;;;;;;;;;;5029561;28;19963;-88
2024/03/23 08:25:47;;;;;;;;;;;;;;;;;;5030986;28;20331;-90
2024/03/23 08:28:12;;;;;;;;;;;;;;;;;;5009475;28;19921;-88
2024/03/23 08:30:38;;;;;;;;;;;;;;;;;;5043204;28;19913;-90
2024/03/23 08:33:06;;;;;;;;;;;;;;;;;;5028314;28;19917;-86
2024/03/23 08:35:32;;;;;;;;;;;;;;;;;;5020508;28;20287;-88
2024/03/23 08:37:57;;;;;;;;;;;;;;;;;;5005514;28;19910;-87
2024/03/23 08:40:23;;;;;;;;;;;;;;;;;;5028454;28;19943;-90
2024/03/23 08:42:50;;;;;;;;;;;;;;;;;;5018412;28;19913;-88
2024/03/23 08:45:15;;;;;;;;;;;;;;;;;;5025598;28;19917;-89
2024/03/23 08:47:41;;;;;;;;;;;;;;;;;;5040371;28;20036;-85
2024/03/23 08:50:06;;;;;;;;;;;;;;;;;;5024637;28;19913;-87
2024/03/23 08:52:32;;;;;;;;;;;;;;;;;;5025184;28;19975;-89
2024/03/23 08:54:58;;;;;;;;;;;;;;;;;;5001062;28;19971;-86
2024/03/23 08:57:26;;;;;;;;;;;;;;;;;;5006640;28;19921;-89
2024/03/23 08:59:52;;;;;;;;;;;;;;;;;;4998575;28;20599;-87
2024/03/23 09:02:18;;;;;;;;;;;;;;;;;;5014152;28;19921;-90
2024/03/23 09:04:45;;;;;;;;;;;;;;;;;;5022986;28;19971;-90
2024/03/23 09:07:11;;;;;;;;;;;;;;;;;;5025201;28;19914;-86
2024/03/23 09:09:36;;;;;;;;;;;;;;;;;;4992845;28;19914;-89
2024/03/23 09:12:04;;;;;;;;;;;;;;;;;;5006897;28;20072;-88
2024/03/23 09:14:30;;;;;;;;;;;;;;;;;;5029127;28;19949;-89
2024/03/23 09:16:56;;;;;;;;;;;;;;;;;;5009618;28;19917;-88
2024/03/23 09:19:23;;;;;;;;;;;;;;;;;;5026338;28;19918;-89
2024/03/23 09:21:48;;;;;;;;;;;;;;;;;;4993005;28;20016;-86
2024/03/23 09:24:17;;;;;;;;;;;;;;;;;;5008212;28;19924;-88
2024/03/23 09:26:42;;;;;;;;;;;;;;;;;;5014661;28;19924;-87
2024/03/23 09:29:07;;;;;;;;;;;;;;;;;;4991764;28;19921;-86
2024/03/23 09:31:33;;;;;;;;;;;;;;;;;;5008267;28;20013;-88
2024/03/23 09:33:58;;;;;;;;;;;;;;;;;;4995703;28;19917;-86
2024/03/23 09:36:24;;;;;;;;;;;;;;;;;;5044605;28;19924;-87
2024/03/23 09:38:51;;;;;;;;;;;;;;;;;;4999489;28;19932;-89
2024/03/23 09:41:16;;;;;;;;;;;;;;;;;;5013921;28;19913;-86
2024/03/23 09:43:42;;;;;;;;;;;;;;;;;;5000128;28;19972;-88
2024/03/23 09:46:07;;;;;;;;;;;;;;;;;;5029431;28;19905;-91
2024/03/23 09:48:33;;;;;;;;;;;;;;;;;;5031462;28;19981;-90
2024/03/23 09:50:59;;;;;;;;;;;;;;;;;;5021452;28;20004;-89
2024/03/23 09:53:41;;;;;;;;;;;;;;;;;;5034149;28;19917;-88
2024/03/23 09:56:17;;;;;;;;;;;;;;;;;;5036882;28;19921;-88
2024/03/23 10:01:30;;;;;;;;;;;;;;;;;;5049994;28;19914;-89
2024/03/23 10:03:56;;;;;;;;;;;;;;;;;;5035952;28;19924;-89
2024/03/23 10:06:24;;;;;;;;;;;;;;;;;;5050678;28;19994;-87
2024/03/23 10:08:50;;;;;;;;;;;;;;;;;;5019838;28;19937;-90
2024/03/23 10:11:16;;;;;;;;;;;;;;;;;;5027665;28;20008;-89
2024/03/23 10:13:41;;;;;;;;;;;;;;;;;;5030925;28;19952;-88
2024/03/23 10:16:07;;;;;;;;;;;;;;;;;;5028963;28;19913;-87
2024/03/23 10:18:32;;;;;;;;;;;;;;;;;;5012123;28;19928;-88
2024/03/23 10:20:57;;;;;;;;;;;;;;;;;;5016064;28;20308;-87
2024/03/23 10:23:22;;;;;;;;;;;;;;;;;;5012382;28;20521;-88
2024/03/23 10:25:49;;;;;;;;;;;;;;;;;;5044662;28;19996;-90
2024/03/23 10:28:16;;;;;;;;;;;;;;;;;;5030642;28;19971;-89
2024/03/23 10:30:41;;;;;;;;;;;;;;;;;;5036179;28;19939;-90
2024/03/23 10:33:11;;;;;;;;;;;;;;;;;;5028474;28;19924;-88
2024/03/23 10:35:46;;;;;;;;;;;;;;;;;;5016313;28;19928;-85
2024/03/23 10:38:12;;;;;;;;;;;;;;;;;;5030052;28;19921;-88
2024/03/23 10:40:42;;;;;;;;;;;;;;;;;;5046657;28;19972;-91
2024/03/23 10:43:07;;;;;;;;;;;;;;;;;;5055120;28;19953;-90
2024/03/23 10:45:34;;;;;;;;;;;;;;;;;;5029962;28;20238;-90
2024/03/23 10:47:59;;;;;;;;;;;;;;;;;;5049096;28;19960;-89
2024/03/23 10:50:24;;;;;;;;;;;;;;;;;;5027157;28;19916;-90
2024/03/23 10:52:59;;;;;;;;;;;;;;;;;;5032756;28;19917;-90
2024/03/23 10:55:26;;;;;;;;;;;;;;;;;;4994299;28;20323;-93
2024/03/23 10:57:58;;;;;;;;;;;;;;;;;;4993570;28;20335;-93
2024/03/23 11:00:23;;;;;;;;;;;;;;;;;;5025536;28;19914;-89
2024/03/23 11:02:50;;;;;;;;;;;;;;;;;;4996079;28;19968;-86
2024/03/23 11:05:24;;;;;;;;;;;;;;;;;;5007821;28;19956;-87
2024/03/23 11:07:49;;;;;;;;;;;;;;;;;;5007749;28;19924;-91
2024/03/23 11:10:15;;;;;;;;;;;;;;;;;;5023042;28;19976;-90
2024/03/23 11:12:42;;;;;;;;;;;;;;;;;;4999106;28;19932;-91
2024/03/23 11:15:08;;;;;;;;;;;;;;;;;;5016262;28;19909;-91
2024/03/23 11:17:33;;;;;;;;;;;;;;;;;;4993692;28;19960;-85
2024/03/23 11:19:59;;;;;;;;;;;;;;;;;;4992267;28;19913;-89
2024/03/23 11:22:24;;;;;;;;;;;;;;;;;;5010435;28;19972;-87
2024/03/23 11:24:49;;;;;;;;;;;;;;;;;;5004371;28;19924;-90
2024/03/23 11:27:15;;;;;;;;;;;;;;;;;;5024847;28;19913;-90
2024/03/23 11:29:41;;;;;;;;;;;;;;;;;;5028166;28;19968;-89
2024/03/23 11:32:13;;;;;;;;;;;;;;;;;;5013313;28;19917;-90
2024/03/23 11:34:44;;;;;;;;;;;;;;;;;;5006039;28;19932;-90
2024/03/23 11:37:09;;;;;;;;;;;;;;;;;;5008265;28;19913;-90
2024/03/23 11:39:34;;;;;;;;;;;;;;;;;;5007305;28;19913;-86
2024/03/23 11:42:00;;;;;;;;;;;;;;;;;;4994515;28;20004;-87
2024/03/23 11:44:26;;;;;;;;;;;;;;;;;;4993265;28;19913;-88
2024/03/23 11:46:52;;;;;;;;;;;;;;;;;;5028914;28;20027;-88
2024/03/23 11:49:21;;;;;;;;;;;;;;;;;;4995794;28;19914;-86
2024/03/23 11:51:47;;;;;;;;;;;;;;;;;;5040970;28;19984;-85
2024/03/23 11:54:13;;;;;;;;;;;;;;;;;;5030042;28;19972;-90
2024/03/23 11:56:40;;;;;;;;;;;;;;;;;;5042628;28;20003;-88
2024/03/23 11:59:06;;;;;;;;;;;;;;;;;;5030040;28;19909;-89
2024/03/23 12:01:31;;;;;;;;;;;;;;;;;;5033171;28;20360;-85
2024/03/23 12:03:56;;;;;;;;;;;;;;;;;;5029233;28;20337;-93
2024/03/23 12:06:25;;;;;;;;;;;;;;;;;;5047123;28;20022;-88
2024/03/23 12:08:51;;;;;;;;;;;;;;;;;;5032547;28;19955;-90
2024/03/23 12:11:16;;;;;;;;;;;;;;;;;;5031082;28;19921;-90
2024/03/23 12:13:42;;;;;;;;;;;;;;;;;;5030385;28;19934;-87
2024/03/23 12:16:08;;;;;;;;;;;;;;;;;;5030408;28;19920;-91
2024/03/23 12:18:33;;;;;;;;;;;;;;;;;;5014587;28;19985;-90
2024/03/23 12:20:59;;;;;;;;;;;;;;;;;;5017044;28;19931;-86
2024/03/23 12:23:24;;;;;;;;;;;;;;;;;;5013737;28;19941;-89
2024/03/23 12:25:52;;;;;;;;;;;;;;;;;;5029956;28;19928;-88
2024/03/23 12:28:18;;;;;;;;;;;;;;;;;;5006546;28;19913;-87
2024/03/23 12:30:46;;;;;;;;;;;;;;;;;;5015387;28;19924;-88
2024/03/23 12:33:15;;;;;;;;;;;;;;;;;;5007660;28;19947;-89
2024/03/23 12:35:42;;;;;;;;;;;;;;;;;;5044024;28;20003;-90
2024/03/23 12:38:07;;;;;;;;;;;;;;;;;;5015814;28;19913;-89
2024/03/23 12:40:35;;;;;;;;;;;;;;;;;;5012876;28;20255;-90
2024/03/23 12:43:00;;;;;;;;;;;;;;;;;;5011699;28;19916;-86
2024/03/23 12:45:26;;;;;;;;;;;;;;;;;;5040160;28;19913;-89
2024/03/23 12:47:55;;;;;;;;;;;;;;;;;;5023085;28;20067;-89
2024/03/23 12:50:21;;;;;;;;;;;;;;;;;;5013847;28;19995;-89
2024/03/23 12:52:47;;;;;;;;;;;;;;;;;;5025295;28;19921;-90
2024/03/23 12:55:12;;;;;;;;;;;;;;;;;;5043902;28;19940;-91
2024/03/23 12:57:38;;;;;;;;;;;;;;;;;;5028612;28;19968;-87
2024/03/23 13:00:06;;;;;;;;;;;;;;;;;;5029517;28;19913;-88
2024/03/23 13:02:31;;;;;;;;;;;;;;;;;;5045216;28;20040;-90
2024/03/23 13:04:57;;;;;;;;;;;;;;;;;;5018657;28;19921;-86
2024/03/23 13:07:26;;;;;;;;;;;;;;;;;;5042943;28;19977;-87
2024/03/23 13:09:56;;;;;;;;;;;;;;;;;;5024527;28;19917;-87
2024/03/23 13:12:23;;;;;;;;;;;;;;;;;;5009877;28;19928;-88
2024/03/23 13:14:48;;;;;;;;;;;;;;;;;;5033854;28;19914;-87
2024/03/23 13:17:13;;;;;;;;;;;;;;;;;;5038289;28;20016;-85
2024/03/23 13:19:39;;;;;;;;;;;;;;;;;;5039180;28;19913;-88
2024/03/23 13:22:04;;;;;;;;;;;;;;;;;;5035067;28;19917;-83
2024/03/23 13:24:30;;;;;;;;;;;;;;;;;;5027313;28;19905;-85
2024/03/23 13:27:00;;;;;;;;;;;;;;;;;;5057295;28;19948;-88
2024/03/23 13:29:27;;;;;;;;;;;;;;;;;;5012432;28;19905;-87
2024/03/23 13:31:53;;;;;;;;;;;;;;;;;;4953255;23;1814776;-71
2024/03/23 13:34:21;;;;;;;;;;;;;;;;;;4989419;28;19921;-71
2024/03/23 13:36:46;;;;;;;;;;;;;;;;;;4993907;28;19929;-66
2024/03/23 13:39:11;;;;;;;;;;;;;;;;;;4994788;28;19921;-70
2024/03/23 13:41:40;;;;;;;;;;;;;;;;;;4994287;28;19914;-70
2024/03/23 13:44:05;;;;;;;;;;;;;;;;;;4989010;28;19975;-68
2024/03/23 13:46:31;;;;;;;;;;;;;;;;;;4978915;28;20368;-69
2024/03/23 13:48:56;;;;;;;;;;;;;;;;;;4997529;28;19928;-67
2024/03/23 13:51:23;;;;;;;;;;;;;;;;;;4978515;28;20459;-69
2024/03/23 13:53:49;;;;;;;;;;;;;;;;;;4995955;28;20469;-71
2024/03/23 13:56:14;;;;;;;;;;;;;;;;;;4975119;28;19927;-72
2024/03/23 13:58:39;;;;;;;;;;;;;;;;;;4996772;28;20012;-69
2024/03/23 14:01:04;;;;;;;;;;;;;;;;;;4956371;28;19979;-70
2024/03/23 14:03:30;;;;;;;;;;;;;;;;;;4972654;28;20466;-68
2024/03/23 14:05:56;;;;;;;;;;;;;;;;;;4989259;28;20036;-68
2024/03/23 14:08:21;;;;;;;;;;;;;;;;;;4974308;28;19922;-67
2024/03/23 14:10:47;;;;;;;;;;;;;;;;;;4995982;28;19921;-67
2024/03/23 14:13:12;;;;;;;;;;;;;;;;;;4997863;28;20462;-70
2024/03/23 14:18:54;;;;;;;;;;;;;;;;;;5014353;28;20407;-68
2024/03/23 14:21:19;;;;;;;;;;;;;;;;;;5013431;28;19921;-67
2024/03/23 14:23:45;;;;;;;;;;;;;;;;;;5001388;28;19925;-72
2024/03/23 14:26:10;;;;;;;;;;;;;;;;;;4993739;28;20390;-67
2024/03/23 14:28:36;;;;;;;;;;;;;;;;;;4991797;28;20001;-72
2024/03/23 14:31:03;;;;;;;;;;;;;;;;;;5014892;28;19929;-70
2024/03/23 14:33:33;;;;;;;;;;;;;;;;;;4993230;28;20328;-69
2024/03/23 14:35:59;;;;;;;;;;;;;;;;;;5014178;28;19970;-68
2024/03/23 14:38:24;;;;;;;;;;;;;;;;;;5013029;28;20370;-68
2024/03/23 14:40:51;;;;;;;;;;;;;;;;;;4993961;28;19921;-68
2024/03/23 14:43:17;;;;;;;;;;;;;;;;;;5015073;28;20112;-69
2024/03/23 14:45:43;;;;;;;;;;;;;;;;;;5011633;28;20007;-69
2024/03/23 14:48:10;;;;;;;;;;;;;;;;;;5014295;28;19917;-67
2024/03/23 14:50:39;;;;;;;;;;;;;;;;;;4993932;28;19970;-67
2024/03/23 14:53:04;;;;;;;;;;;;;;;;;;5014366;28;19929;-68
2024/03/23 14:55:30;;;;;;;;;;;;;;;;;;5014946;28;19921;-66
2024/03/23 14:57:58;;;;;;;;;;;;;;;;;;4997450;28;20509;-68
2024/03/23 15:00:26;;;;;;;;;;;;;;;;;;4991698;28;20364;-72
2024/03/23 15:02:51;;;;;;;;;;;;;;;;;;4981521;28;21638;-71
2024/03/23 15:05:17;;;;;;;;;;;;;;;;;;4997643;28;20420;-70
2024/03/23 15:07:42;;;;;;;;;;;;;;;;;;4996648;28;19921;-73
2024/03/23 15:10:10;;;;;;;;;;;;;;;;;;5013797;28;20849;-68
2024/03/23 15:12:35;;;;;;;;;;;;;;;;;;5014525;28;20011;-71
2024/03/23 15:15:01;;;;;;;;;;;;;;;;;;5013241;28;19940;-71
2024/03/23 15:17:30;;;;;;;;;;;;;;;;;;4992372;28;19918;-68
2024/03/23 15:19:55;;;;;;;;;;;;;;;;;;5013299;28;20135;-66
2024/03/23 15:22:21;;;;;;;;;;;;;;;;;;4976634;28;19917;-72
2024/03/23 15:24:49;;;;;;;;;;;;;;;;;;5013329;28;19921;-69
2024/03/23 15:27:19;;;;;;;;;;;;;;;;;;4978117;28;20409;-70
2024/03/23 15:29:45;;;;;;;;;;;;;;;;;;5013012;28;19928;-71
2024/03/23 15:32:11;;;;;;;;;;;;;;;;;;4993229;28;19929;-70
2024/03/23 15:34:36;;;;;;;;;;;;;;;;;;4988859;28;19917;-68
2024/03/23 15:37:02;;;;;;;;;;;;;;;;;;5014430;28;19913;-68
2024/03/23 15:39:28;;;;;;;;;;;;;;;;;;4993861;28;20369;-69
2024/03/23 15:41:54;;;;;;;;;;;;;;;;;;4992079;28;19952;-67
2024/03/23 15:44:22;;;;;;;;;;;;;;;;;;5010480;28;19925;-72
2024/03/23 15:46:48;;;;;;;;;;;;;;;;;;5011839;28;19927;-66
2024/03/23 15:49:16;;;;;;;;;;;;;;;;;;5013981;28;19967;-67
2024/03/23 15:51:44;;;;;;;;;;;;;;;;;;4981210;28;19960;-69
2024/03/23 15:54:09;;;;;;;;;;;;;;;;;;4992841;28;20062;-68
2024/03/23 15:56:34;;;;;;;;;;;;;;;;;;5014231;28;19932;-67
2024/03/23 15:59:05;;;;;;;;;;;;;;;;;;4998714;28;19925;-72
2024/03/23 16:01:33;;;;;;;;;;;;;;;;;;4995246;28;19917;-74
2024/03/23 16:03:58;;;;;;;;;;;;;;;;;;4978752;28;20276;-70
2024/03/23 16:06:26;;;;;;;;;;;;;;;;;;5012673;28;19960;-67
2024/03/23 16:08:52;;;;;;;;;;;;;;;;;;4992398;28;20015;-72
2024/03/23 16:11:17;;;;;;;;;;;;;;;;;;4996197;28;19925;-68
2024/03/23 16:13:43;;;;;;;;;;;;;;;;;;4989446;28;20601;-73
2024/03/23 16:16:10;;;;;;;;;;;;;;;;;;5012495;28;19922;-72
2024/03/23 16:18:39;;;;;;;;;;;;;;;;;;4994017;28;19928;-66
2024/03/23 16:21:07;;;;;;;;;;;;;;;;;;5014317;28;20067;-68
2024/03/23 16:23:32;;;;;;;;;;;;;;;;;;5012841;28;19918;-73
2024/03/23 16:26:02;;;;;;;;;;;;;;;;;;5011601;28;19983;-69
2024/03/23 16:28:27;;;;;;;;;;;;;;;;;;4995180;28;19921;-68
2024/03/23 16:30:53;;;;;;;;;;;;;;;;;;4995787;28;20562;-66
2024/03/23 16:33:21;;;;;;;;;;;;;;;;;;4982436;28;20693;-66
2024/03/23 16:35:49;;;;;;;;;;;;;;;;;;4996328;28;19917;-69
2024/03/23 16:38:20;;;;;;;;;;;;;;;;;;4997705;28;20011;-66
2024/03/23 16:40:45;;;;;;;;;;;;;;;;;;4995719;28;20010;-66
2024/03/23 16:43:10;;;;;;;;;;;;;;;;;;4996928;28;20004;-66
2024/03/23 16:45:38;;;;;;;;;;;;;;;;;;4992737;28;19921;-66
2024/03/23 16:48:04;;;;;;;;;;;;;;;;;;4979933;28;20035;-67
2024/03/23 16:50:29;;;;;;;;;;;;;;;;;;5015685;28;20595;-66